This is the latest recevied weather packets stored in our database for station/object VE7GEL. If no packets are shown the sender has not sent any weather packets the latest 10 day(s).
| Time | Temp. | Humidity | Pressure | Rain* | Wind** | Luminosity | Snow |
|---|---|---|---|---|---|---|---|
| 1777929406 | 18.33° C | 62% | 1010 hPa | 0 mm | - | 56 W/m² | - |
| 1777929303 | 18.33° C | 60% | 1010.4 hPa | 0 mm | - | 55 W/m² | - |
| 1777928505 | 17.22° C | 63% | 1010.2 hPa | 0 mm | - | 52 W/m² | - |
| 1777928402 | 17.22° C | 65% | 1010.4 hPa | 0 mm | - | 52 W/m² | - |
| 1777927604 | 17.22° C | 67% | 1010.2 hPa | 0 mm | - | 51 W/m² | - |
| 1777926699 | 17.22° C | 65% | 1010.2 hPa | 0 mm | - | 49 W/m² | - |
| 1777926602 | 17.22° C | 64% | 1010.5 hPa | 0 mm | - | 49 W/m² | - |
| 1777925801 | 16.67° C | 65% | 1010.3 hPa | 0 mm | - | 48 W/m² | - |
| 1777925702 | 16.67° C | 64% | 1010.6 hPa | 0 mm | - | 48 W/m² | - |
| 1777924900 | 17.22° C | 65% | 1010.4 hPa | 0 mm | - | 56 W/m² | - |
| 1777923999 | 18.33° C | 56% | 1010.2 hPa | 0 mm | - | 54 W/m² | - |
| 1777923100 | 18.33° C | 54% | 1010.3 hPa | 0 mm | - | 52 W/m² | - |
| 1777923002 | 18.33° C | 54% | 1010.6 hPa | 0 mm | - | 52 W/m² | - |
| 1777922197 | 17.78° C | 56% | 1010.5 hPa | 0 mm | - | 49 W/m² | - |
| 1777921297 | 17.22° C | 57% | 1010.5 hPa | 0 mm | - | 57 W/m² | - |
| 1777920398 | 17.22° C | 57% | 1010.6 hPa | 0 mm | - | 52 W/m² | - |
| 1777920302 | 17.22° C | 56% | 1010.9 hPa | 0 mm | - | 51 W/m² | - |
| 1777919495 | 17.22° C | 57% | 1010.5 hPa | 0 mm | - | 49 W/m² | - |
| 1777918598 | 16.67° C | 62% | 1010.6 hPa | 0 mm | - | 54 W/m² | - |
| 1777917697 | 16.67° C | 64% | 1010.6 hPa | 0 mm | - | 55 W/m² | - |
| 1777917602 | 16.67° C | 63% | 1010.9 hPa | 0 mm | - | 52 W/m² | - |
| 1777916793 | 17.22° C | 58% | 1010.6 hPa | 0 mm | - | 46 W/m² | - |
| 1777915893 | 17.22° C | 58% | 1010.6 hPa | 0 mm | - | 46 W/m² | - |
| 1777914990 | 17.22° C | 58% | 1010.7 hPa | 0 mm | - | 42 W/m² | - |
| 1777914090 | 17.22° C | 57% | 1010.6 hPa | 0 mm | - | 43 W/m² | - |
* Rain latest hour (hover to see other rain measurements)
** Current wind speed in m/s (hover to see current wind gust speed)